sensor_id;sensor_type;location;lat;lon;timestamp;P1;durP1;ratioP1;P2;durP2;ratioP2
35691;SDS011;26978;44.830;-0.674;2023-05-10T00:00:23;26.52;;;2.97;;
35691;SDS011;26978;44.830;-0.674;2023-05-10T00:02:49;26.83;;;4.00;;
35691;SDS011;26978;44.830;-0.674;2023-05-10T00:05:14;33.60;;;3.80;;
35691;SDS011;26978;44.830;-0.674;2023-05-10T00:07:40;34.00;;;3.60;;
35691;SDS011;26978;44.830;-0.674;2023-05-10T00:10:09;30.23;;;4.25;;
35691;SDS011;26978;44.830;-0.674;2023-05-10T00:12:36;29.73;;;3.90;;
35691;SDS011;26978;44.830;-0.674;2023-05-10T00:15:02;27.52;;;4.57;;
35691;SDS011;26978;44.830;-0.674;2023-05-10T00:17:28;33.67;;;3.10;;
35691;SDS011;26978;44.830;-0.674;2023-05-10T00:19:53;37.90;;;3.75;;
35691;SDS011;26978;44.830;-0.674;2023-05-10T00:22:19;28.08;;;3.35;;
35691;SDS011;26978;44.830;-0.674;2023-05-10T00:24:45;32.78;;;2.80;;
35691;SDS011;26978;44.830;-0.674;2023-05-10T00:27:11;36.17;;;3.53;;
35691;SDS011;26978;44.830;-0.674;2023-05-10T00:29:36;22.48;;;3.38;;
35691;SDS011;26978;44.830;-0.674;2023-05-10T00:32:02;25.15;;;3.70;;
35691;SDS011;26978;44.830;-0.674;2023-05-10T00:34:28;29.00;;;4.88;;
35691;SDS011;26978;44.830;-0.674;2023-05-10T00:36:54;22.40;;;2.75;;
35691;SDS011;26978;44.830;-0.674;2023-05-10T00:39:19;29.35;;;3.33;;
35691;SDS011;26978;44.830;-0.674;2023-05-10T00:41:45;32.65;;;3.50;;
35691;SDS011;26978;44.830;-0.674;2023-05-10T00:44:11;27.63;;;4.13;;
35691;SDS011;26978;44.830;-0.674;2023-05-10T00:46:36;24.73;;;2.70;;
35691;SDS011;26978;44.830;-0.674;2023-05-10T00:49:02;29.17;;;3.22;;
35691;SDS011;26978;44.830;-0.674;2023-05-10T00:51:28;27.95;;;3.67;;
35691;SDS011;26978;44.830;-0.674;2023-05-10T00:53:54;25.00;;;3.42;;
35691;SDS011;26978;44.830;-0.674;2023-05-10T00:56:21;24.33;;;3.40;;
35691;SDS011;26978;44.830;-0.674;2023-05-10T00:58:48;36.40;;;4.20;;
35691;SDS011;26978;44.830;-0.674;2023-05-10T01:01:14;35.72;;;3.63;;
35691;SDS011;26978;44.830;-0.674;2023-05-10T01:03:39;19.90;;;3.22;;
35691;SDS011;26978;44.830;-0.674;2023-05-10T01:06:06;19.55;;;2.67;;
35691;SDS011;26978;44.830;-0.674;2023-05-10T01:08:32;27.08;;;3.75;;
35691;SDS011;26978;44.830;-0.674;2023-05-10T01:10:58;24.75;;;3.97;;
35691;SDS011;26978;44.830;-0.674;2023-05-10T01:13:34;21.55;;;3.72;;
35691;SDS011;26978;44.830;-0.674;2023-05-10T01:16:05;30.40;;;3.70;;
35691;SDS011;26978;44.830;-0.674;2023-05-10T01:18:36;23.27;;;2.88;;
35691;SDS011;26978;44.830;-0.674;2023-05-10T01:21:10;25.63;;;3.33;;
35691;SDS011;26978;44.830;-0.674;2023-05-10T01:24:10;23.80;;;3.28;;
35691;SDS011;26978;44.830;-0.674;2023-05-10T01:29:37;19.85;;;2.85;;
35691;SDS011;26978;44.830;-0.674;2023-05-10T01:32:29;17.30;;;3.50;;
35691;SDS011;26978;44.830;-0.674;2023-05-10T01:35:00;30.92;;;3.97;;
35691;SDS011;26978;44.830;-0.674;2023-05-10T01:37:59;25.13;;;2.78;;
35691;SDS011;26978;44.830;-0.674;2023-05-10T01:40:32;32.83;;;3.95;;
35691;SDS011;26978;44.830;-0.674;2023-05-10T01:43:05;23.70;;;3.47;;
35691;SDS011;26978;44.830;-0.674;2023-05-10T01:48:57;27.73;;;3.45;;
35691;SDS011;26978;44.830;-0.674;2023-05-10T01:51:23;27.92;;;3.63;;
35691;SDS011;26978;44.830;-0.674;2023-05-10T01:53:54;30.50;;;3.55;;
35691;SDS011;26978;44.830;-0.674;2023-05-10T01:56:26;30.13;;;3.77;;
35691;SDS011;26978;44.830;-0.674;2023-05-10T01:58:55;27.15;;;3.65;;
35691;SDS011;26978;44.830;-0.674;2023-05-10T02:01:22;27.52;;;4.18;;
35691;SDS011;26978;44.830;-0.674;2023-05-10T02:03:51;22.98;;;3.40;;
35691;SDS011;26978;44.830;-0.674;2023-05-10T02:06:18;31.50;;;5.03;;
35691;SDS011;26978;44.830;-0.674;2023-05-10T02:08:47;35.47;;;5.55;;
35691;SDS011;26978;44.830;-0.674;2023-05-10T02:11:14;30.02;;;4.40;;
35691;SDS011;26978;44.830;-0.674;2023-05-10T02:13:42;27.70;;;3.92;;
35691;SDS011;26978;44.830;-0.674;2023-05-10T02:16:08;37.78;;;4.43;;
35691;SDS011;26978;44.830;-0.674;2023-05-10T02:18:34;26.25;;;3.70;;
35691;SDS011;26978;44.830;-0.674;2023-05-10T02:21:02;24.13;;;3.53;;
35691;SDS011;26978;44.830;-0.674;2023-05-10T02:23:28;31.17;;;3.38;;
35691;SDS011;26978;44.830;-0.674;2023-05-10T02:25:55;25.90;;;3.88;;
35691;SDS011;26978;44.830;-0.674;2023-05-10T02:28:23;30.65;;;4.60;;
35691;SDS011;26978;44.830;-0.674;2023-05-10T02:30:51;28.95;;;3.80;;
35691;SDS011;26978;44.830;-0.674;2023-05-10T02:33:17;38.45;;;5.65;;
35691;SDS011;26978;44.830;-0.674;2023-05-10T02:35:45;19.85;;;3.35;;
35691;SDS011;26978;44.830;-0.674;2023-05-10T02:38:11;24.05;;;3.70;;
35691;SDS011;26978;44.830;-0.674;2023-05-10T02:40:41;30.05;;;4.38;;
35691;SDS011;26978;44.830;-0.674;2023-05-10T02:43:09;24.17;;;3.63;;
35691;SDS011;26978;44.830;-0.674;2023-05-10T02:45:38;32.40;;;5.20;;
35691;SDS011;26978;44.830;-0.674;2023-05-10T02:48:05;29.40;;;3.90;;
35691;SDS011;26978;44.830;-0.674;2023-05-10T02:50:32;27.38;;;4.15;;
35691;SDS011;26978;44.830;-0.674;2023-05-10T02:53:03;30.70;;;4.30;;
35691;SDS011;26978;44.830;-0.674;2023-05-10T02:55:40;27.65;;;4.13;;
35691;SDS011;26978;44.830;-0.674;2023-05-10T02:58:08;24.40;;;3.95;;
35691;SDS011;26978;44.830;-0.674;2023-05-10T03:00:34;30.70;;;4.95;;
35691;SDS011;26978;44.830;-0.674;2023-05-10T03:03:01;22.15;;;4.25;;
35691;SDS011;26978;44.830;-0.674;2023-05-10T03:05:27;39.13;;;5.43;;
35691;SDS011;26978;44.830;-0.674;2023-05-10T03:07:52;39.30;;;4.68;;
35691;SDS011;26978;44.830;-0.674;2023-05-10T03:10:19;28.30;;;4.25;;
35691;SDS011;26978;44.830;-0.674;2023-05-10T03:18:23;36.10;;;6.32;;
35691;SDS011;26978;44.830;-0.674;2023-05-10T03:20:59;35.55;;;5.85;;
35691;SDS011;26978;44.830;-0.674;2023-05-10T03:23:33;39.45;;;5.90;;
35691;SDS011;26978;44.830;-0.674;2023-05-10T03:26:05;32.33;;;4.32;;
35691;SDS011;26978;44.830;-0.674;2023-05-10T03:28:33;39.88;;;5.60;;
35691;SDS011;26978;44.830;-0.674;2023-05-10T03:31:00;26.35;;;4.57;;
35691;SDS011;26978;44.830;-0.674;2023-05-10T03:33:27;29.17;;;5.18;;
35691;SDS011;26978;44.830;-0.674;2023-05-10T03:35:53;37.05;;;5.97;;
35691;SDS011;26978;44.830;-0.674;2023-05-10T03:38:19;36.15;;;5.18;;
35691;SDS011;26978;44.830;-0.674;2023-05-10T03:40:45;36.78;;;5.18;;
35691;SDS011;26978;44.830;-0.674;2023-05-10T03:43:10;33.88;;;4.65;;
35691;SDS011;26978;44.830;-0.674;2023-05-10T03:45:36;29.13;;;4.85;;
35691;SDS011;26978;44.830;-0.674;2023-05-10T03:48:02;32.33;;;5.53;;
35691;SDS011;26978;44.830;-0.674;2023-05-10T03:50:28;38.25;;;5.40;;
35691;SDS011;26978;44.830;-0.674;2023-05-10T03:52:53;43.13;;;5.65;;
35691;SDS011;26978;44.830;-0.674;2023-05-10T03:55:19;33.95;;;6.95;;
35691;SDS011;26978;44.830;-0.674;2023-05-10T03:57:45;38.38;;;5.18;;
35691;SDS011;26978;44.830;-0.674;2023-05-10T04:00:10;34.20;;;4.90;;
35691;SDS011;26978;44.830;-0.674;2023-05-10T04:02:36;39.42;;;5.15;;
35691;SDS011;26978;44.830;-0.674;2023-05-10T04:05:02;34.67;;;5.25;;
35691;SDS011;26978;44.830;-0.674;2023-05-10T04:07:28;32.67;;;4.57;;
35691;SDS011;26978;44.830;-0.674;2023-05-10T04:09:54;35.95;;;5.28;;
35691;SDS011;26978;44.830;-0.674;2023-05-10T04:12:19;33.30;;;5.03;;
35691;SDS011;26978;44.830;-0.674;2023-05-10T04:14:45;37.97;;;5.80;;
35691;SDS011;26978;44.830;-0.674;2023-05-10T04:17:11;36.05;;;5.00;;
35691;SDS011;26978;44.830;-0.674;2023-05-10T04:19:36;47.28;;;5.75;;
35691;SDS011;26978;44.830;-0.674;2023-05-10T04:22:02;35.13;;;6.10;;
35691;SDS011;26978;44.830;-0.674;2023-05-10T04:24:28;32.58;;;5.18;;
35691;SDS011;26978;44.830;-0.674;2023-05-10T04:26:54;34.95;;;5.32;;
35691;SDS011;26978;44.830;-0.674;2023-05-10T04:29:20;33.95;;;4.95;;
35691;SDS011;26978;44.830;-0.674;2023-05-10T04:31:46;33.42;;;5.40;;
35691;SDS011;26978;44.830;-0.674;2023-05-10T04:34:11;22.25;;;3.97;;
35691;SDS011;26978;44.830;-0.674;2023-05-10T04:36:37;34.58;;;5.25;;
35691;SDS011;26978;44.830;-0.674;2023-05-10T04:39:04;26.00;;;4.30;;
35691;SDS011;26978;44.830;-0.674;2023-05-10T04:41:30;32.42;;;4.38;;
35691;SDS011;26978;44.830;-0.674;2023-05-10T04:43:55;35.63;;;5.22;;
35691;SDS011;26978;44.830;-0.674;2023-05-10T04:46:21;23.42;;;4.53;;
35691;SDS011;26978;44.830;-0.674;2023-05-10T04:48:47;24.70;;;3.75;;
35691;SDS011;26978;44.830;-0.674;2023-05-10T04:51:12;25.65;;;4.45;;
35691;SDS011;26978;44.830;-0.674;2023-05-10T04:53:38;26.42;;;3.92;;
35691;SDS011;26978;44.830;-0.674;2023-05-10T04:56:04;36.10;;;5.53;;
35691;SDS011;26978;44.830;-0.674;2023-05-10T04:58:30;22.50;;;3.67;;
35691;SDS011;26978;44.830;-0.674;2023-05-10T05:00:56;32.30;;;4.22;;
35691;SDS011;26978;44.830;-0.674;2023-05-10T05:03:21;26.13;;;4.38;;
35691;SDS011;26978;44.830;-0.674;2023-05-10T05:05:47;27.40;;;4.25;;
35691;SDS011;26978;44.830;-0.674;2023-05-10T05:08:13;30.83;;;4.53;;
35691;SDS011;26978;44.830;-0.674;2023-05-10T05:10:39;31.50;;;4.18;;
35691;SDS011;26978;44.830;-0.674;2023-05-10T05:13:04;33.60;;;4.75;;
35691;SDS011;26978;44.830;-0.674;2023-05-10T05:15:30;29.20;;;4.32;;
35691;SDS011;26978;44.830;-0.674;2023-05-10T05:17:56;24.35;;;3.72;;
35691;SDS011;26978;44.830;-0.674;2023-05-10T05:20:22;34.38;;;3.38;;
35691;SDS011;26978;44.830;-0.674;2023-05-10T05:22:47;25.73;;;3.35;;
35691;SDS011;26978;44.830;-0.674;2023-05-10T05:25:13;22.98;;;4.50;;
35691;SDS011;26978;44.830;-0.674;2023-05-10T05:27:40;19.20;;;2.88;;
35691;SDS011;26978;44.830;-0.674;2023-05-10T05:30:06;19.50;;;2.90;;
35691;SDS011;26978;44.830;-0.674;2023-05-10T05:32:32;14.18;;;2.78;;
35691;SDS011;26978;44.830;-0.674;2023-05-10T05:34:57;23.92;;;2.97;;
35691;SDS011;26978;44.830;-0.674;2023-05-10T05:37:23;15.20;;;2.40;;
35691;SDS011;26978;44.830;-0.674;2023-05-10T05:39:49;16.85;;;2.22;;
35691;SDS011;26978;44.830;-0.674;2023-05-10T05:42:15;15.20;;;2.90;;
35691;SDS011;26978;44.830;-0.674;2023-05-10T05:44:42;22.73;;;3.17;;
35691;SDS011;26978;44.830;-0.674;2023-05-10T05:47:08;14.25;;;3.05;;
35691;SDS011;26978;44.830;-0.674;2023-05-10T05:49:34;20.77;;;3.58;;
35691;SDS011;26978;44.830;-0.674;2023-05-10T05:52:00;14.13;;;3.05;;
35691;SDS011;26978;44.830;-0.674;2023-05-10T05:54:26;25.33;;;3.35;;
35691;SDS011;26978;44.830;-0.674;2023-05-10T05:56:58;13.32;;;3.00;;
35691;SDS011;26978;44.830;-0.674;2023-05-10T05:59:25;19.90;;;3.33;;
35691;SDS011;26978;44.830;-0.674;2023-05-10T06:01:51;13.65;;;2.63;;
35691;SDS011;26978;44.830;-0.674;2023-05-10T06:04:17;17.35;;;3.38;;
35691;SDS011;26978;44.830;-0.674;2023-05-10T06:06:43;11.25;;;2.10;;
35691;SDS011;26978;44.830;-0.674;2023-05-10T06:09:09;32.28;;;4.07;;
35691;SDS011;26978;44.830;-0.674;2023-05-10T06:11:35;19.60;;;2.35;;
35691;SDS011;26978;44.830;-0.674;2023-05-10T06:14:01;21.08;;;2.95;;
35691;SDS011;26978;44.830;-0.674;2023-05-10T06:16:29;16.92;;;3.50;;
35691;SDS011;26978;44.830;-0.674;2023-05-10T06:18:55;23.10;;;3.20;;
35691;SDS011;26978;44.830;-0.674;2023-05-10T06:21:20;20.52;;;3.60;;
35691;SDS011;26978;44.830;-0.674;2023-05-10T06:23:46;15.68;;;3.25;;
35691;SDS011;26978;44.830;-0.674;2023-05-10T06:26:12;21.10;;;3.60;;
35691;SDS011;26978;44.830;-0.674;2023-05-10T06:28:38;21.98;;;4.28;;
35691;SDS011;26978;44.830;-0.674;2023-05-10T06:31:04;22.98;;;4.47;;
35691;SDS011;26978;44.830;-0.674;2023-05-10T06:33:31;24.23;;;4.85;;
35691;SDS011;26978;44.830;-0.674;2023-05-10T06:35:57;22.45;;;4.28;;
35691;SDS011;26978;44.830;-0.674;2023-05-10T06:38:23;21.35;;;3.65;;
35691;SDS011;26978;44.830;-0.674;2023-05-10T06:40:49;27.48;;;4.90;;
35691;SDS011;26978;44.830;-0.674;2023-05-10T06:43:14;28.80;;;4.97;;
35691;SDS011;26978;44.830;-0.674;2023-05-10T06:45:41;25.40;;;4.15;;
35691;SDS011;26978;44.830;-0.674;2023-05-10T06:48:06;27.67;;;4.55;;
35691;SDS011;26978;44.830;-0.674;2023-05-10T06:50:32;23.42;;;4.05;;
35691;SDS011;26978;44.830;-0.674;2023-05-10T06:52:58;18.10;;;2.95;;
35691;SDS011;26978;44.830;-0.674;2023-05-10T06:55:25;26.60;;;3.33;;
35691;SDS011;26978;44.830;-0.674;2023-05-10T06:57:51;20.45;;;2.80;;
35691;SDS011;26978;44.830;-0.674;2023-05-10T07:00:17;23.63;;;3.42;;
35691;SDS011;26978;44.830;-0.674;2023-05-10T07:02:43;22.15;;;3.13;;
35691;SDS011;26978;44.830;-0.674;2023-05-10T07:05:09;19.85;;;3.75;;
35691;SDS011;26978;44.830;-0.674;2023-05-10T07:07:35;25.13;;;3.88;;
35691;SDS011;26978;44.830;-0.674;2023-05-10T07:10:01;24.45;;;3.78;;
35691;SDS011;26978;44.830;-0.674;2023-05-10T07:12:27;29.95;;;3.40;;
35691;SDS011;26978;44.830;-0.674;2023-05-10T07:14:53;28.35;;;3.65;;
35691;SDS011;26978;44.830;-0.674;2023-05-10T07:17:18;19.17;;;3.05;;
35691;SDS011;26978;44.830;-0.674;2023-05-10T07:19:44;18.38;;;3.28;;
35691;SDS011;26978;44.830;-0.674;2023-05-10T07:22:10;21.25;;;3.85;;
35691;SDS011;26978;44.830;-0.674;2023-05-10T07:24:36;18.75;;;3.35;;
35691;SDS011;26978;44.830;-0.674;2023-05-10T07:27:02;16.80;;;2.80;;
35691;SDS011;26978;44.830;-0.674;2023-05-10T07:29:27;17.88;;;2.55;;
35691;SDS011;26978;44.830;-0.674;2023-05-10T07:31:53;21.23;;;3.22;;
35691;SDS011;26978;44.830;-0.674;2023-05-10T07:34:19;18.58;;;3.50;;
35691;SDS011;26978;44.830;-0.674;2023-05-10T07:36:45;76.85;;;47.85;;
35691;SDS011;26978;44.830;-0.674;2023-05-10T07:39:10;24.05;;;4.35;;
35691;SDS011;26978;44.830;-0.674;2023-05-10T07:41:36;25.38;;;3.15;;
35691;SDS011;26978;44.830;-0.674;2023-05-10T07:44:03;15.10;;;2.72;;
35691;SDS011;26978;44.830;-0.674;2023-05-10T07:46:29;16.90;;;2.90;;
35691;SDS011;26978;44.830;-0.674;2023-05-10T07:48:55;20.48;;;2.85;;
35691;SDS011;26978;44.830;-0.674;2023-05-10T07:51:21;17.23;;;2.05;;
35691;SDS011;26978;44.830;-0.674;2023-05-10T07:53:46;13.35;;;3.53;;
35691;SDS011;26978;44.830;-0.674;2023-05-10T07:56:25;18.52;;;2.67;;
35691;SDS011;26978;44.830;-0.674;2023-05-10T07:58:56;14.52;;;2.55;;
35691;SDS011;26978;44.830;-0.674;2023-05-10T08:01:22;23.02;;;3.30;;
35691;SDS011;26978;44.830;-0.674;2023-05-10T08:03:48;25.48;;;3.80;;
35691;SDS011;26978;44.830;-0.674;2023-05-10T08:06:16;20.30;;;2.88;;
35691;SDS011;26978;44.830;-0.674;2023-05-10T08:08:43;26.08;;;4.20;;
35691;SDS011;26978;44.830;-0.674;2023-05-10T08:11:14;26.80;;;3.85;;
35691;SDS011;26978;44.830;-0.674;2023-05-10T08:13:43;21.52;;;2.60;;
35691;SDS011;26978;44.830;-0.674;2023-05-10T08:16:12;18.63;;;3.08;;
35691;SDS011;26978;44.830;-0.674;2023-05-10T08:18:38;25.48;;;3.50;;
35691;SDS011;26978;44.830;-0.674;2023-05-10T08:21:04;24.83;;;3.35;;
35691;SDS011;26978;44.830;-0.674;2023-05-10T08:23:30;15.77;;;3.35;;
35691;SDS011;26978;44.830;-0.674;2023-05-10T08:25:56;11.50;;;1.88;;
35691;SDS011;26978;44.830;-0.674;2023-05-10T08:28:22;12.32;;;2.45;;
35691;SDS011;26978;44.830;-0.674;2023-05-10T08:30:49;18.92;;;2.88;;
35691;SDS011;26978;44.830;-0.674;2023-05-10T08:33:15;21.88;;;3.15;;
35691;SDS011;26978;44.830;-0.674;2023-05-10T08:35:40;12.80;;;2.67;;
35691;SDS011;26978;44.830;-0.674;2023-05-10T08:38:06;23.38;;;3.83;;
35691;SDS011;26978;44.830;-0.674;2023-05-10T08:40:32;20.33;;;3.45;;
35691;SDS011;26978;44.830;-0.674;2023-05-10T08:43:10;18.05;;;3.33;;
35691;SDS011;26978;44.830;-0.674;2023-05-10T08:45:38;31.75;;;3.75;;
35691;SDS011;26978;44.830;-0.674;2023-05-10T08:48:05;29.90;;;4.50;;
35691;SDS011;26978;44.830;-0.674;2023-05-10T08:50:33;22.85;;;3.88;;
35691;SDS011;26978;44.830;-0.674;2023-05-10T08:53:02;23.75;;;3.78;;
35691;SDS011;26978;44.830;-0.674;2023-05-10T08:55:32;26.38;;;4.20;;
35691;SDS011;26978;44.830;-0.674;2023-05-10T08:57:59;22.08;;;3.95;;
35691;SDS011;26978;44.830;-0.674;2023-05-10T09:00:25;26.48;;;3.85;;
35691;SDS011;26978;44.830;-0.674;2023-05-10T09:02:51;18.52;;;3.28;;
35691;SDS011;26978;44.830;-0.674;2023-05-10T09:05:17;20.02;;;3.45;;
35691;SDS011;26978;44.830;-0.674;2023-05-10T09:07:43;17.10;;;3.30;;
35691;SDS011;26978;44.830;-0.674;2023-05-10T09:10:09;23.80;;;2.92;;
35691;SDS011;26978;44.830;-0.674;2023-05-10T09:12:36;16.98;;;3.25;;
35691;SDS011;26978;44.830;-0.674;2023-05-10T09:15:02;24.38;;;3.83;;
35691;SDS011;26978;44.830;-0.674;2023-05-10T09:17:30;14.05;;;2.83;;
35691;SDS011;26978;44.830;-0.674;2023-05-10T09:19:59;21.25;;;2.92;;
35691;SDS011;26978;44.830;-0.674;2023-05-10T09:22:26;24.13;;;2.95;;
35691;SDS011;26978;44.830;-0.674;2023-05-10T09:27:41;21.17;;;2.83;;
35691;SDS011;26978;44.830;-0.674;2023-05-10T09:30:10;16.02;;;3.22;;
35691;SDS011;26978;44.830;-0.674;2023-05-10T09:32:44;13.18;;;2.38;;
35691;SDS011;26978;44.830;-0.674;2023-05-10T09:35:19;16.02;;;3.45;;
35691;SDS011;26978;44.830;-0.674;2023-05-10T09:37:47;13.77;;;2.40;;
35691;SDS011;26978;44.830;-0.674;2023-05-10T09:45:28;16.13;;;2.72;;
35691;SDS011;26978;44.830;-0.674;2023-05-10T09:47:55;20.20;;;2.97;;
35691;SDS011;26978;44.830;-0.674;2023-05-10T09:50:22;15.15;;;2.60;;
35691;SDS011;26978;44.830;-0.674;2023-05-10T09:55:16;12.27;;;2.60;;
35691;SDS011;26978;44.830;-0.674;2023-05-10T09:57:43;21.67;;;3.35;;
35691;SDS011;26978;44.830;-0.674;2023-05-10T10:00:09;27.65;;;4.43;;
35691;SDS011;26978;44.830;-0.674;2023-05-10T10:02:35;28.05;;;3.17;;
35691;SDS011;26978;44.830;-0.674;2023-05-10T10:05:01;18.42;;;3.25;;
35691;SDS011;26978;44.830;-0.674;2023-05-10T10:07:28;10.25;;;2.88;;
35691;SDS011;26978;44.830;-0.674;2023-05-10T10:09:54;15.90;;;2.40;;
35691;SDS011;26978;44.830;-0.674;2023-05-10T10:12:20;27.65;;;3.40;;
35691;SDS011;26978;44.830;-0.674;2023-05-10T10:14:46;6.70;;;0.68;;
35691;SDS011;26978;44.830;-0.674;2023-05-10T10:17:13;17.55;;;2.53;;
35691;SDS011;26978;44.830;-0.674;2023-05-10T10:19:39;13.48;;;2.17;;
35691;SDS011;26978;44.830;-0.674;2023-05-10T10:22:06;13.48;;;2.30;;
35691;SDS011;26978;44.830;-0.674;2023-05-10T10:24:33;10.07;;;2.30;;
35691;SDS011;26978;44.830;-0.674;2023-05-10T10:27:01;17.35;;;2.75;;
35691;SDS011;26978;44.830;-0.674;2023-05-10T10:35:12;21.48;;;3.28;;
35691;SDS011;26978;44.830;-0.674;2023-05-10T10:37:44;16.13;;;2.75;;
35691;SDS011;26978;44.830;-0.674;2023-05-10T10:42:59;15.15;;;2.80;;
35691;SDS011;26978;44.830;-0.674;2023-05-10T10:48:43;10.85;;;1.98;;
35691;SDS011;26978;44.830;-0.674;2023-05-10T10:51:22;6.25;;;1.73;;
35691;SDS011;26978;44.830;-0.674;2023-05-10T10:54:13;5.97;;;1.08;;
35691;SDS011;26978;44.830;-0.674;2023-05-10T10:57:42;9.32;;;1.67;;
35691;SDS011;26978;44.830;-0.674;2023-05-10T10:59:43;9.35;;;1.52;;
35691;SDS011;26978;44.830;-0.674;2023-05-10T11:02:09;13.30;;;1.77;;
35691;SDS011;26978;44.830;-0.674;2023-05-10T11:04:42;7.55;;;1.45;;
35691;SDS011;26978;44.830;-0.674;2023-05-10T11:07:20;1.58;;;0.60;;
35691;SDS011;26978;44.830;-0.674;2023-05-10T11:09:49;8.10;;;1.58;;
35691;SDS011;26978;44.830;-0.674;2023-05-10T11:12:15;8.32;;;1.77;;
35691;SDS011;26978;44.830;-0.674;2023-05-10T11:14:40;6.85;;;1.30;;
35691;SDS011;26978;44.830;-0.674;2023-05-10T11:17:23;7.65;;;1.55;;
35691;SDS011;26978;44.830;-0.674;2023-05-10T11:20:07;7.93;;;1.13;;
35691;SDS011;26978;44.830;-0.674;2023-05-10T11:25:44;7.55;;;1.25;;
35691;SDS011;26978;44.830;-0.674;2023-05-10T11:28:10;8.20;;;1.42;;
35691;SDS011;26978;44.830;-0.674;2023-05-10T11:30:40;3.38;;;0.98;;
35691;SDS011;26978;44.830;-0.674;2023-05-10T11:33:07;5.40;;;1.00;;
35691;SDS011;26978;44.830;-0.674;2023-05-10T11:35:39;7.68;;;1.60;;
35691;SDS011;26978;44.830;-0.674;2023-05-10T11:38:06;7.80;;;1.15;;
35691;SDS011;26978;44.830;-0.674;2023-05-10T11:40:36;4.88;;;1.50;;
35691;SDS011;26978;44.830;-0.674;2023-05-10T11:43:02;6.50;;;1.50;;
35691;SDS011;26978;44.830;-0.674;2023-05-10T11:45:29;18.35;;;2.15;;
35691;SDS011;26978;44.830;-0.674;2023-05-10T11:47:58;7.90;;;1.35;;
35691;SDS011;26978;44.830;-0.674;2023-05-10T11:50:24;7.30;;;1.40;;
35691;SDS011;26978;44.830;-0.674;2023-05-10T11:53:00;4.70;;;0.90;;
35691;SDS011;26978;44.830;-0.674;2023-05-10T11:55:25;12.65;;;1.88;;
35691;SDS011;26978;44.830;-0.674;2023-05-10T11:57:51;12.98;;;1.67;;
35691;SDS011;26978;44.830;-0.674;2023-05-10T12:00:18;6.93;;;2.08;;
35691;SDS011;26978;44.830;-0.674;2023-05-10T12:02:44;14.90;;;2.05;;
35691;SDS011;26978;44.830;-0.674;2023-05-10T12:05:10;7.72;;;1.33;;
35691;SDS011;26978;44.830;-0.674;2023-05-10T12:07:36;9.40;;;2.33;;
35691;SDS011;26978;44.830;-0.674;2023-05-10T12:10:25;7.15;;;1.25;;
35691;SDS011;26978;44.830;-0.674;2023-05-10T12:12:51;11.60;;;2.05;;
35691;SDS011;26978;44.830;-0.674;2023-05-10T12:15:18;12.13;;;2.38;;
35691;SDS011;26978;44.830;-0.674;2023-05-10T12:17:48;10.48;;;2.03;;
35691;SDS011;26978;44.830;-0.674;2023-05-10T12:22:54;10.98;;;2.08;;
35691;SDS011;26978;44.830;-0.674;2023-05-10T12:25:22;18.75;;;2.92;;
35691;SDS011;26978;44.830;-0.674;2023-05-10T12:27:53;8.90;;;1.33;;
35691;SDS011;26978;44.830;-0.674;2023-05-10T12:30:21;18.85;;;3.10;;
35691;SDS011;26978;44.830;-0.674;2023-05-10T12:32:48;10.90;;;1.38;;
35691;SDS011;26978;44.830;-0.674;2023-05-10T12:35:13;10.80;;;1.80;;
35691;SDS011;26978;44.830;-0.674;2023-05-10T12:37:40;10.43;;;1.88;;
35691;SDS011;26978;44.830;-0.674;2023-05-10T12:40:07;11.85;;;2.47;;
35691;SDS011;26978;44.830;-0.674;2023-05-10T12:42:34;13.95;;;2.30;;
35691;SDS011;26978;44.830;-0.674;2023-05-10T12:45:03;11.48;;;1.77;;
35691;SDS011;26978;44.830;-0.674;2023-05-10T12:47:30;11.15;;;1.88;;
35691;SDS011;26978;44.830;-0.674;2023-05-10T12:49:57;8.55;;;1.73;;
35691;SDS011;26978;44.830;-0.674;2023-05-10T12:52:23;7.07;;;1.35;;
35691;SDS011;26978;44.830;-0.674;2023-05-10T12:54:49;9.45;;;1.88;;
35691;SDS011;26978;44.830;-0.674;2023-05-10T12:57:15;9.57;;;1.98;;
35691;SDS011;26978;44.830;-0.674;2023-05-10T12:59:42;13.45;;;2.45;;
35691;SDS011;26978;44.830;-0.674;2023-05-10T13:02:07;14.70;;;2.42;;
35691;SDS011;26978;44.830;-0.674;2023-05-10T13:04:33;8.85;;;1.80;;
35691;SDS011;26978;44.830;-0.674;2023-05-10T13:06:59;9.90;;;1.50;;
35691;SDS011;26978;44.830;-0.674;2023-05-10T13:09:25;7.35;;;1.75;;
35691;SDS011;26978;44.830;-0.674;2023-05-10T13:11:52;15.63;;;1.98;;
35691;SDS011;26978;44.830;-0.674;2023-05-10T13:14:20;11.27;;;2.45;;
35691;SDS011;26978;44.830;-0.674;2023-05-10T13:16:46;13.57;;;2.65;;
35691;SDS011;26978;44.830;-0.674;2023-05-10T13:19:13;10.63;;;1.95;;
35691;SDS011;26978;44.830;-0.674;2023-05-10T13:21:39;11.50;;;1.98;;
35691;SDS011;26978;44.830;-0.674;2023-05-10T13:24:06;13.32;;;2.28;;
35691;SDS011;26978;44.830;-0.674;2023-05-10T13:26:32;13.07;;;2.15;;
35691;SDS011;26978;44.830;-0.674;2023-05-10T13:28:58;7.35;;;2.13;;
35691;SDS011;26978;44.830;-0.674;2023-05-10T13:31:23;16.08;;;3.08;;
35691;SDS011;26978;44.830;-0.674;2023-05-10T13:33:50;10.77;;;2.72;;
35691;SDS011;26978;44.830;-0.674;2023-05-10T13:36:15;11.38;;;2.30;;
35691;SDS011;26978;44.830;-0.674;2023-05-10T13:38:41;9.68;;;1.80;;
35691;SDS011;26978;44.830;-0.674;2023-05-10T13:41:06;10.60;;;1.52;;
35691;SDS011;26978;44.830;-0.674;2023-05-10T13:43:32;13.68;;;2.28;;
35691;SDS011;26978;44.830;-0.674;2023-05-10T13:45:58;9.65;;;1.75;;
35691;SDS011;26978;44.830;-0.674;2023-05-10T13:48:23;9.18;;;2.42;;
35691;SDS011;26978;44.830;-0.674;2023-05-10T13:50:49;9.35;;;1.73;;
35691;SDS011;26978;44.830;-0.674;2023-05-10T13:53:15;8.82;;;1.38;;
35691;SDS011;26978;44.830;-0.674;2023-05-10T13:55:41;6.28;;;1.63;;
35691;SDS011;26978;44.830;-0.674;2023-05-10T13:58:06;11.25;;;2.05;;
35691;SDS011;26978;44.830;-0.674;2023-05-10T14:00:32;10.02;;;1.90;;
35691;SDS011;26978;44.830;-0.674;2023-05-10T14:02:58;10.48;;;2.17;;
35691;SDS011;26978;44.830;-0.674;2023-05-10T14:05:23;12.68;;;2.38;;
35691;SDS011;26978;44.830;-0.674;2023-05-10T14:07:49;15.32;;;2.35;;
35691;SDS011;26978;44.830;-0.674;2023-05-10T14:10:15;12.68;;;2.92;;
35691;SDS011;26978;44.830;-0.674;2023-05-10T14:12:41;16.80;;;3.13;;
35691;SDS011;26978;44.830;-0.674;2023-05-10T14:15:07;10.80;;;2.28;;
35691;SDS011;26978;44.830;-0.674;2023-05-10T14:17:35;11.07;;;2.17;;
35691;SDS011;26978;44.830;-0.674;2023-05-10T14:20:01;11.05;;;2.05;;
35691;SDS011;26978;44.830;-0.674;2023-05-10T14:22:27;15.98;;;2.70;;
35691;SDS011;26978;44.830;-0.674;2023-05-10T14:24:52;14.35;;;2.95;;
35691;SDS011;26978;44.830;-0.674;2023-05-10T14:27:18;8.32;;;1.58;;
35691;SDS011;26978;44.830;-0.674;2023-05-10T14:29:44;12.43;;;2.65;;
35691;SDS011;26978;44.830;-0.674;2023-05-10T14:32:10;12.80;;;2.55;;
35691;SDS011;26978;44.830;-0.674;2023-05-10T14:34:35;13.25;;;1.67;;
35691;SDS011;26978;44.830;-0.674;2023-05-10T14:37:01;6.57;;;1.70;;
35691;SDS011;26978;44.830;-0.674;2023-05-10T14:39:27;6.90;;;1.05;;
35691;SDS011;26978;44.830;-0.674;2023-05-10T14:41:55;3.97;;;1.20;;
35691;SDS011;26978;44.830;-0.674;2023-05-10T14:44:21;12.40;;;2.17;;
35691;SDS011;26978;44.830;-0.674;2023-05-10T14:46:46;3.13;;;1.05;;
35691;SDS011;26978;44.830;-0.674;2023-05-10T14:49:13;5.95;;;1.42;;
35691;SDS011;26978;44.830;-0.674;2023-05-10T14:51:39;12.77;;;1.88;;
35691;SDS011;26978;44.830;-0.674;2023-05-10T14:54:04;13.25;;;2.13;;
35691;SDS011;26978;44.830;-0.674;2023-05-10T14:56:31;10.18;;;1.73;;
35691;SDS011;26978;44.830;-0.674;2023-05-10T14:58:56;12.18;;;2.08;;
35691;SDS011;26978;44.830;-0.674;2023-05-10T15:01:22;9.32;;;1.35;;
35691;SDS011;26978;44.830;-0.674;2023-05-10T15:03:48;7.22;;;1.63;;